sensor_id;sensor_type;location;lat;lon;timestamp;pressure;altitude;pressure_sealevel;temperature;humidity
17936;BME280;9093;52.062;4.508;2023-06-26T00:00:52;101507.59;;;25.03;53.54
17936;BME280;9093;52.062;4.508;2023-06-26T00:03:32;101501.59;;;24.99;53.62
17936;BME280;9093;52.062;4.508;2023-06-26T00:06:13;101510.28;;;24.95;53.68
17936;BME280;9093;52.062;4.508;2023-06-26T00:08:54;101514.03;;;24.94;53.86
17936;BME280;9093;52.062;4.508;2023-06-26T00:11:34;101514.34;;;24.91;54.00
17936;BME280;9093;52.062;4.508;2023-06-26T00:14:15;101520.41;;;24.84;53.89
17936;BME280;9093;52.062;4.508;2023-06-26T00:16:55;101534.53;;;24.80;54.11
17936;BME280;9093;52.062;4.508;2023-06-26T00:19:36;101525.09;;;24.74;54.54
17936;BME280;9093;52.062;4.508;2023-06-26T00:22:16;101528.16;;;24.71;54.25
17936;BME280;9093;52.062;4.508;2023-06-26T00:24:56;101546.88;;;24.66;54.62
17936;BME280;9093;52.062;4.508;2023-06-26T00:27:37;101546.47;;;24.61;54.70
17936;BME280;9093;52.062;4.508;2023-06-26T00:30:17;101543.06;;;24.59;54.68
17936;BME280;9093;52.062;4.508;2023-06-26T00:32:57;101545.38;;;24.54;54.96
17936;BME280;9093;52.062;4.508;2023-06-26T00:35:38;101527.63;;;24.50;54.80
17936;BME280;9093;52.062;4.508;2023-06-26T00:38:18;101533.53;;;24.46;55.07
17936;BME280;9093;52.062;4.508;2023-06-26T00:40:59;101546.63;;;24.42;54.90
17936;BME280;9093;52.062;4.508;2023-06-26T00:43:42;101534.00;;;24.41;55.27
17936;BME280;9093;52.062;4.508;2023-06-26T00:46:22;101539.06;;;24.36;54.98
17936;BME280;9093;52.062;4.508;2023-06-26T00:49:04;101546.16;;;24.29;55.26
17936;BME280;9093;52.062;4.508;2023-06-26T00:51:45;101543.03;;;24.24;55.47
17936;BME280;9093;52.062;4.508;2023-06-26T00:54:25;101546.09;;;24.21;55.43
17936;BME280;9093;52.062;4.508;2023-06-26T00:57:06;101553.66;;;24.17;55.34
17936;BME280;9093;52.062;4.508;2023-06-26T00:59:46;101545.63;;;24.16;55.27
17936;BME280;9093;52.062;4.508;2023-06-26T01:02:26;101540.63;;;24.11;55.33
17936;BME280;9093;52.062;4.508;2023-06-26T01:05:13;101543.13;;;24.04;55.47
17936;BME280;9093;52.062;4.508;2023-06-26T01:08:01;101544.31;;;24.02;55.84
17936;BME280;9093;52.062;4.508;2023-06-26T01:10:42;101540.28;;;23.96;55.89
17936;BME280;9093;52.062;4.508;2023-06-26T01:13:23;101557.84;;;23.94;56.02
17936;BME280;9093;52.062;4.508;2023-06-26T01:16:04;101531.72;;;23.91;56.01
17936;BME280;9093;52.062;4.508;2023-06-26T01:18:45;101558.28;;;23.89;56.06
17936;BME280;9093;52.062;4.508;2023-06-26T01:21:26;101549.69;;;23.84;55.84
17936;BME280;9093;52.062;4.508;2023-06-26T01:24:16;101556.19;;;23.83;56.28
17936;BME280;9093;52.062;4.508;2023-06-26T01:27:00;101563.63;;;23.81;56.28
17936;BME280;9093;52.062;4.508;2023-06-26T01:29:44;101556.78;;;23.77;56.51
17936;BME280;9093;52.062;4.508;2023-06-26T01:32:26;101545.16;;;23.75;56.13
17936;BME280;9093;52.062;4.508;2023-06-26T01:35:07;101547.16;;;23.73;56.15
17936;BME280;9093;52.062;4.508;2023-06-26T01:37:48;101539.97;;;23.72;56.29
17936;BME280;9093;52.062;4.508;2023-06-26T01:40:28;101548.47;;;23.69;56.40
17936;BME280;9093;52.062;4.508;2023-06-26T01:43:20;101548.78;;;23.66;56.67
17936;BME280;9093;52.062;4.508;2023-06-26T01:46:06;101548.78;;;23.66;56.72
17936;BME280;9093;52.062;4.508;2023-06-26T01:49:09;101546.34;;;23.63;56.43
17936;BME280;9093;52.062;4.508;2023-06-26T01:52:07;101543.63;;;23.63;56.90
17936;BME280;9093;52.062;4.508;2023-06-26T01:54:55;101544.78;;;23.60;56.86
17936;BME280;9093;52.062;4.508;2023-06-26T01:57:38;101552.25;;;23.58;56.83
17936;BME280;9093;52.062;4.508;2023-06-26T02:00:20;101547.09;;;23.55;56.67
17936;BME280;9093;52.062;4.508;2023-06-26T02:03:01;101551.84;;;23.53;56.96
17936;BME280;9093;52.062;4.508;2023-06-26T02:05:42;101554.88;;;23.50;57.04
17936;BME280;9093;52.062;4.508;2023-06-26T02:08:22;101565.19;;;23.47;56.87
17936;BME280;9093;52.062;4.508;2023-06-26T02:11:03;101557.44;;;23.42;56.96
17936;BME280;9093;52.062;4.508;2023-06-26T02:13:45;101566.94;;;23.38;57.04
17936;BME280;9093;52.062;4.508;2023-06-26T02:16:26;101560.91;;;23.35;57.38
17936;BME280;9093;52.062;4.508;2023-06-26T02:19:06;101556.75;;;23.31;57.21
17936;BME280;9093;52.062;4.508;2023-06-26T02:21:48;101549.59;;;23.30;57.51
17936;BME280;9093;52.062;4.508;2023-06-26T02:24:29;101566.38;;;23.25;57.44
17936;BME280;9093;52.062;4.508;2023-06-26T02:27:10;101570.25;;;23.22;57.29
17936;BME280;9093;52.062;4.508;2023-06-26T02:29:51;101584.19;;;23.19;57.63
17936;BME280;9093;52.062;4.508;2023-06-26T02:32:31;101579.88;;;23.17;57.48
17936;BME280;9093;52.062;4.508;2023-06-26T02:35:12;101569.13;;;23.15;57.78
17936;BME280;9093;52.062;4.508;2023-06-26T02:37:52;101570.44;;;23.11;57.87
17936;BME280;9093;52.062;4.508;2023-06-26T02:40:32;101579.91;;;23.07;57.94
17936;BME280;9093;52.062;4.508;2023-06-26T02:43:13;101580.75;;;23.08;57.70
17936;BME280;9093;52.062;4.508;2023-06-26T02:45:53;101590.81;;;23.07;57.75
17936;BME280;9093;52.062;4.508;2023-06-26T02:48:34;101576.72;;;23.02;58.07
17936;BME280;9093;52.062;4.508;2023-06-26T02:51:14;101588.78;;;23.00;57.99
17936;BME280;9093;52.062;4.508;2023-06-26T02:53:55;101598.09;;;22.97;57.81
17936;BME280;9093;52.062;4.508;2023-06-26T02:56:35;101598.22;;;22.96;57.80
17936;BME280;9093;52.062;4.508;2023-06-26T02:59:15;101599.41;;;22.93;57.90
17936;BME280;9093;52.062;4.508;2023-06-26T03:01:56;101603.41;;;22.89;58.20
17936;BME280;9093;52.062;4.508;2023-06-26T03:04:36;101617.31;;;22.86;58.12
17936;BME280;9093;52.062;4.508;2023-06-26T03:07:16;101611.44;;;22.81;58.40
17936;BME280;9093;52.062;4.508;2023-06-26T03:09:57;101613.75;;;22.76;58.09
17936;BME280;9093;52.062;4.508;2023-06-26T03:12:37;101614.00;;;22.73;58.50
17936;BME280;9093;52.062;4.508;2023-06-26T03:15:17;101623.16;;;22.72;58.51
17936;BME280;9093;52.062;4.508;2023-06-26T03:17:59;101621.31;;;22.72;58.24
17936;BME280;9093;52.062;4.508;2023-06-26T03:20:39;101621.41;;;22.71;58.29
17936;BME280;9093;52.062;4.508;2023-06-26T03:23:20;101624.56;;;22.66;58.21
17936;BME280;9093;52.062;4.508;2023-06-26T03:26:01;101623.16;;;22.62;58.56
17936;BME280;9093;52.062;4.508;2023-06-26T03:28:41;101628.84;;;22.59;58.62
17936;BME280;9093;52.062;4.508;2023-06-26T03:31:22;101640.03;;;22.56;58.50
17936;BME280;9093;52.062;4.508;2023-06-26T03:34:02;101624.84;;;22.54;58.56
17936;BME280;9093;52.062;4.508;2023-06-26T03:36:43;101630.59;;;22.51;58.45
17936;BME280;9093;52.062;4.508;2023-06-26T03:39:23;101629.00;;;22.48;58.78
17936;BME280;9093;52.062;4.508;2023-06-26T03:42:03;101629.97;;;22.47;58.53
17936;BME280;9093;52.062;4.508;2023-06-26T03:44:44;101634.88;;;22.43;58.53
17936;BME280;9093;52.062;4.508;2023-06-26T03:47:24;101635.84;;;22.42;58.94
17936;BME280;9093;52.062;4.508;2023-06-26T03:50:05;101633.41;;;22.39;58.84
17936;BME280;9093;52.062;4.508;2023-06-26T03:52:45;101642.56;;;22.38;58.81
17936;BME280;9093;52.062;4.508;2023-06-26T03:55:26;101647.44;;;22.35;58.65
17936;BME280;9093;52.062;4.508;2023-06-26T03:58:06;101654.00;;;22.32;58.64
17936;BME280;9093;52.062;4.508;2023-06-26T04:00:46;101649.13;;;22.26;59.01
17936;BME280;9093;52.062;4.508;2023-06-26T04:03:28;101653.97;;;22.23;59.09
17936;BME280;9093;52.062;4.508;2023-06-26T04:06:08;101664.00;;;22.22;58.80
17936;BME280;9093;52.062;4.508;2023-06-26T04:08:49;101678.59;;;22.21;59.07
17936;BME280;9093;52.062;4.508;2023-06-26T04:11:30;101680.63;;;22.19;59.13
17936;BME280;9093;52.062;4.508;2023-06-26T04:14:11;101686.88;;;22.20;59.03
17936;BME280;9093;52.062;4.508;2023-06-26T04:16:51;101694.91;;;22.21;59.26
17936;BME280;9093;52.062;4.508;2023-06-26T04:19:32;101695.91;;;22.20;58.88
17936;BME280;9093;52.062;4.508;2023-06-26T04:22:13;101698.91;;;22.17;58.96
17936;BME280;9093;52.062;4.508;2023-06-26T04:24:53;101689.16;;;22.15;58.98
17936;BME280;9093;52.062;4.508;2023-06-26T04:27:33;101694.03;;;22.11;59.08
17936;BME280;9093;52.062;4.508;2023-06-26T04:30:14;101697.63;;;22.12;58.84
17936;BME280;9093;52.062;4.508;2023-06-26T04:32:54;101706.63;;;22.12;58.88
17936;BME280;9093;52.062;4.508;2023-06-26T04:35:38;101708.63;;;22.10;58.90
17936;BME280;9093;52.062;4.508;2023-06-26T04:38:19;101701.44;;;22.09;59.13
17936;BME280;9093;52.062;4.508;2023-06-26T04:41:01;101698.72;;;22.09;59.03
17936;BME280;9093;52.062;4.508;2023-06-26T04:43:41;101713.19;;;22.10;59.03
17936;BME280;9093;52.062;4.508;2023-06-26T04:46:22;101706.16;;;22.07;58.61
17936;BME280;9093;52.062;4.508;2023-06-26T04:49:02;101715.34;;;22.06;58.75
17936;BME280;9093;52.062;4.508;2023-06-26T04:51:43;101720.78;;;22.06;58.91
17936;BME280;9093;52.062;4.508;2023-06-26T04:54:23;101728.06;;;22.05;58.81
17936;BME280;9093;52.062;4.508;2023-06-26T04:57:04;101720.03;;;22.04;58.74
17936;BME280;9093;52.062;4.508;2023-06-26T04:59:44;101729.19;;;22.03;58.90
17936;BME280;9093;52.062;4.508;2023-06-26T05:02:25;101743.78;;;22.02;58.86
17936;BME280;9093;52.062;4.508;2023-06-26T05:05:07;101750.09;;;22.02;58.96
17936;BME280;9093;52.062;4.508;2023-06-26T05:07:47;101748.50;;;22.00;59.35
17936;BME280;9093;52.062;4.508;2023-06-26T05:10:28;101756.06;;;21.96;59.18
17936;BME280;9093;52.062;4.508;2023-06-26T05:13:11;101764.47;;;21.93;59.49
17936;BME280;9093;52.062;4.508;2023-06-26T05:15:51;101764.13;;;21.87;59.30
17936;BME280;9093;52.062;4.508;2023-06-26T05:18:32;101776.00;;;21.86;59.68
17936;BME280;9093;52.062;4.508;2023-06-26T05:21:12;101783.41;;;21.84;59.37
17936;BME280;9093;52.062;4.508;2023-06-26T05:23:58;101781.69;;;21.83;59.53
17936;BME280;9093;52.062;4.508;2023-06-26T05:26:39;101768.84;;;21.85;59.64
17936;BME280;9093;52.062;4.508;2023-06-26T05:29:19;101771.56;;;21.85;59.84
17936;BME280;9093;52.062;4.508;2023-06-26T05:32:00;101787.88;;;21.85;59.45
17936;BME280;9093;52.062;4.508;2023-06-26T05:34:41;101799.47;;;21.87;59.76
17936;BME280;9093;52.062;4.508;2023-06-26T05:37:22;101794.91;;;21.87;59.95
17936;BME280;9093;52.062;4.508;2023-06-26T05:40:02;101797.75;;;21.86;59.67
17936;BME280;9093;52.062;4.508;2023-06-26T05:42:44;101812.34;;;21.85;59.47
17936;BME280;9093;52.062;4.508;2023-06-26T05:45:24;101816.03;;;21.84;59.51
17936;BME280;9093;52.062;4.508;2023-06-26T05:48:05;101810.59;;;21.84;59.20
17936;BME280;9093;52.062;4.508;2023-06-26T05:50:45;101823.47;;;21.82;58.96
17936;BME280;9093;52.062;4.508;2023-06-26T05:53:26;101827.72;;;21.75;58.94
17936;BME280;9093;52.062;4.508;2023-06-26T05:56:07;101821.09;;;21.67;58.85
17936;BME280;9093;52.062;4.508;2023-06-26T05:58:48;101845.66;;;21.66;58.50
17936;BME280;9093;52.062;4.508;2023-06-26T06:01:28;101835.91;;;21.63;58.96
17936;BME280;9093;52.062;4.508;2023-06-26T06:04:08;101830.75;;;21.60;58.75
17936;BME280;9093;52.062;4.508;2023-06-26T06:06:48;101830.75;;;21.60;58.66
17936;BME280;9093;52.062;4.508;2023-06-26T06:09:32;101839.59;;;21.62;58.48
17936;BME280;9093;52.062;4.508;2023-06-26T06:12:12;101835.56;;;21.57;58.28
17936;BME280;9093;52.062;4.508;2023-06-26T06:14:52;101833.00;;;21.55;58.44
17936;BME280;9093;52.062;4.508;2023-06-26T06:17:33;101840.41;;;21.53;58.21
17936;BME280;9093;52.062;4.508;2023-06-26T06:20:13;101852.25;;;21.52;58.23
17936;BME280;9093;52.062;4.508;2023-06-26T06:22:53;101857.56;;;21.54;58.06
17936;BME280;9093;52.062;4.508;2023-06-26T06:25:34;101857.44;;;21.55;58.12
17936;BME280;9093;52.062;4.508;2023-06-26T06:28:14;101853.00;;;21.54;58.03
17936;BME280;9093;52.062;4.508;2023-06-26T06:30:56;101860.41;;;21.52;57.88
17936;BME280;9093;52.062;4.508;2023-06-26T06:33:36;101865.84;;;21.52;57.85
17936;BME280;9093;52.062;4.508;2023-06-26T06:36:17;101874.00;;;21.52;57.81
17936;BME280;9093;52.062;4.508;2023-06-26T06:38:57;101874.97;;;21.51;57.54
17936;BME280;9093;52.062;4.508;2023-06-26T06:41:38;101870.81;;;21.47;57.69
17936;BME280;9093;52.062;4.508;2023-06-26T06:44:18;101877.50;;;21.43;57.83
17936;BME280;9093;52.062;4.508;2023-06-26T06:46:59;101887.75;;;21.40;57.65
17936;BME280;9093;52.062;4.508;2023-06-26T06:49:44;101886.88;;;21.39;57.30
17936;BME280;9093;52.062;4.508;2023-06-26T06:52:25;101898.00;;;21.36;57.67
17936;BME280;9093;52.062;4.508;2023-06-26T06:55:06;101918.59;;;21.39;57.45
17936;BME280;9093;52.062;4.508;2023-06-26T06:57:48;101920.63;;;21.37;57.30
17936;BME280;9093;52.062;4.508;2023-06-26T07:00:31;101910.56;;;21.37;57.63
17936;BME280;9093;52.062;4.508;2023-06-26T07:03:12;101913.44;;;21.36;57.57
17936;BME280;9093;52.062;4.508;2023-06-26T07:05:52;101926.56;;;21.31;57.61
17936;BME280;9093;52.062;4.508;2023-06-26T07:08:32;101912.22;;;21.29;57.50
17936;BME280;9093;52.062;4.508;2023-06-26T07:11:13;101922.09;;;21.30;57.42
17936;BME280;9093;52.062;4.508;2023-06-26T07:13:53;101929.13;;;21.32;57.61
17936;BME280;9093;52.062;4.508;2023-06-26T07:16:33;101921.72;;;21.34;57.26
17936;BME280;9093;52.062;4.508;2023-06-26T07:19:14;101929.13;;;21.32;57.21
17936;BME280;9093;52.062;4.508;2023-06-26T07:21:54;101931.13;;;21.30;57.29
17936;BME280;9093;52.062;4.508;2023-06-26T07:24:34;101941.22;;;21.28;57.45
17936;BME280;9093;52.062;4.508;2023-06-26T07:27:15;101940.25;;;21.29;57.30
17936;BME280;9093;52.062;4.508;2023-06-26T07:29:56;101939.38;;;21.29;57.22
17936;BME280;9093;52.062;4.508;2023-06-26T07:32:37;101947.41;;;21.30;57.12
17936;BME280;9093;52.062;4.508;2023-06-26T07:35:17;101940.25;;;21.29;57.05
17936;BME280;9093;52.062;4.508;2023-06-26T07:37:58;101961.00;;;21.30;57.07
17936;BME280;9093;52.062;4.508;2023-06-26T07:40:41;101953.94;;;21.27;56.94
17936;BME280;9093;52.062;4.508;2023-06-26T07:43:21;101954.06;;;21.26;57.24
17936;BME280;9093;52.062;4.508;2023-06-26T07:46:03;101959.50;;;21.26;57.15
17936;BME280;9093;52.062;4.508;2023-06-26T07:48:43;101964.94;;;21.26;57.03
17936;BME280;9093;52.062;4.508;2023-06-26T07:51:23;101964.22;;;21.24;57.09
17936;BME280;9093;52.062;4.508;2023-06-26T07:54:04;101969.66;;;21.24;57.12
17936;BME280;9093;52.062;4.508;2023-06-26T07:56:58;101964.22;;;21.24;56.78
17936;BME280;9093;52.062;4.508;2023-06-26T07:59:39;101979.25;;;21.28;56.84
17936;BME280;9093;52.062;4.508;2023-06-26T08:02:19;101983.81;;;21.27;56.92
17936;BME280;9093;52.062;4.508;2023-06-26T08:05:00;101979.16;;;21.30;56.92
17936;BME280;9093;52.062;4.508;2023-06-26T08:07:40;101988.16;;;21.30;56.72
17936;BME280;9093;52.062;4.508;2023-06-26T08:10:20;101983.44;;;21.32;56.68
17936;BME280;9093;52.062;4.508;2023-06-26T08:13:00;101978.00;;;21.32;56.50
17936;BME280;9093;52.062;4.508;2023-06-26T08:15:41;101983.44;;;21.32;56.68
17936;BME280;9093;52.062;4.508;2023-06-26T08:18:21;101992.34;;;21.34;56.47
17936;BME280;9093;52.062;4.508;2023-06-26T08:21:01;101988.75;;;21.34;56.40
17936;BME280;9093;52.062;4.508;2023-06-26T08:23:42;101996.16;;;21.32;56.39
17936;BME280;9093;52.062;4.508;2023-06-26T08:26:22;101994.59;;;21.29;56.41
17936;BME280;9093;52.062;4.508;2023-06-26T08:29:03;101981.22;;;21.26;56.50
17936;BME280;9093;52.062;4.508;2023-06-26T08:31:48;101981.97;;;21.28;56.48
17936;BME280;9093;52.062;4.508;2023-06-26T08:34:30;101995.44;;;21.30;56.16
17936;BME280;9093;52.062;4.508;2023-06-26T08:37:11;102003.72;;;21.28;56.21
17936;BME280;9093;52.062;4.508;2023-06-26T08:39:51;102006.81;;;21.23;55.77
17936;BME280;9093;52.062;4.508;2023-06-26T08:42:31;102007.69;;;21.24;55.82
17936;BME280;9093;52.062;4.508;2023-06-26T08:45:11;102010.25;;;21.25;55.77
17936;BME280;9093;52.062;4.508;2023-06-26T08:47:53;102016.53;;;21.26;55.60
17936;BME280;9093;52.062;4.508;2023-06-26T08:50:35;102029.53;;;21.22;55.69
17936;BME280;9093;52.062;4.508;2023-06-26T08:53:52;102027.66;;;21.23;55.94
17936;BME280;9093;52.062;4.508;2023-06-26T08:56:41;102023.22;;;21.22;55.29
17936;BME280;9093;52.062;4.508;2023-06-26T08:59:23;102023.22;;;21.22;55.58
17936;BME280;9093;52.062;4.508;2023-06-26T09:02:04;102022.22;;;21.23;55.41
17936;BME280;9093;52.062;4.508;2023-06-26T09:04:44;102034.84;;;21.24;55.57
17936;BME280;9093;52.062;4.508;2023-06-26T09:07:24;102029.41;;;21.24;55.51
17936;BME280;9093;52.062;4.508;2023-06-26T09:10:05;102031.97;;;21.25;55.31
17936;BME280;9093;52.062;4.508;2023-06-26T09:12:46;102038.03;;;21.29;55.39
17936;BME280;9093;52.062;4.508;2023-06-26T09:15:42;102038.91;;;21.30;55.26
17936;BME280;9093;52.062;4.508;2023-06-26T09:18:22;102054.94;;;21.33;55.61
17936;BME280;9093;52.062;4.508;2023-06-26T09:21:07;102043.97;;;21.34;55.57
17936;BME280;9093;52.062;4.508;2023-06-26T09:23:49;102043.84;;;21.36;55.46
17936;BME280;9093;52.062;4.508;2023-06-26T09:26:29;102045.69;;;21.35;55.45
17936;BME280;9093;52.062;4.508;2023-06-26T09:29:10;102064.47;;;21.38;55.65
17936;BME280;9093;52.062;4.508;2023-06-26T09:31:51;102061.25;;;21.33;55.58
17936;BME280;9093;52.062;4.508;2023-06-26T09:34:32;102064.72;;;21.35;55.66
17936;BME280;9093;52.062;4.508;2023-06-26T09:37:13;102066.47;;;21.36;55.51
17936;BME280;9093;52.062;4.508;2023-06-26T09:39:54;102074.59;;;21.36;55.52
17936;BME280;9093;52.062;4.508;2023-06-26T09:42:34;102058.16;;;21.38;55.75
17936;BME280;9093;52.062;4.508;2023-06-26T09:45:18;102069.16;;;21.36;55.50
17936;BME280;9093;52.062;4.508;2023-06-26T09:48:00;102077.31;;;21.36;55.79
17936;BME280;9093;52.062;4.508;2023-06-26T09:50:42;102081.25;;;21.32;55.50
17936;BME280;9093;52.062;4.508;2023-06-26T09:53:25;102090.16;;;21.34;55.80
17936;BME280;9093;52.062;4.508;2023-06-26T09:56:06;102095.31;;;21.37;55.46
17936;BME280;9093;52.062;4.508;2023-06-26T09:58:47;102098.78;;;21.39;55.44
17936;BME280;9093;52.062;4.508;2023-06-26T10:01:30;102105.22;;;21.38;55.35
17936;BME280;9093;52.062;4.508;2023-06-26T10:04:10;102099.06;;;21.36;55.11
17936;BME280;9093;52.062;4.508;2023-06-26T10:06:51;102111.88;;;21.34;55.29
17936;BME280;9093;52.062;4.508;2023-06-26T10:09:37;102109.94;;;21.36;55.27
17936;BME280;9093;52.062;4.508;2023-06-26T10:12:38;102110.78;;;21.37;54.84
17936;BME280;9093;52.062;4.508;2023-06-26T10:15:19;102107.94;;;21.38;54.85
17936;BME280;9093;52.062;4.508;2023-06-26T10:18:00;102101.63;;;21.38;54.88
17936;BME280;9093;52.062;4.508;2023-06-26T10:20:42;102106.19;;;21.37;54.71
17936;BME280;9093;52.062;4.508;2023-06-26T10:23:25;102105.34;;;21.37;54.83
17936;BME280;9093;52.062;4.508;2023-06-26T10:26:08;102114.97;;;21.41;54.69
17936;BME280;9093;52.062;4.508;2023-06-26T10:28:50;102113.88;;;21.43;54.67
17936;BME280;9093;52.062;4.508;2023-06-26T10:31:33;102115.38;;;21.47;54.56
17936;BME280;9093;52.062;4.508;2023-06-26T10:34:15;102136.13;;;21.48;54.51
17936;BME280;9093;52.062;4.508;2023-06-26T10:37:02;102127.00;;;21.49;54.53
17936;BME280;9093;52.062;4.508;2023-06-26T10:39:52;102148.47;;;21.52;53.91
17936;BME280;9093;52.062;4.508;2023-06-26T10:42:36;102141.28;;;21.51;53.86
17936;BME280;9093;52.062;4.508;2023-06-26T10:45:20;102149.44;;;21.51;53.81
17936;BME280;9093;52.062;4.508;2023-06-26T10:48:00;102145.00;;;21.50;53.96
17936;BME280;9093;52.062;4.508;2023-06-26T10:50:40;102140.19;;;21.54;53.73
17936;BME280;9093;52.062;4.508;2023-06-26T10:56:04;102142.53;;;21.58;53.58
17936;BME280;9093;52.062;4.508;2023-06-26T10:58:44;102149.72;;;21.59;53.48
17936;BME280;9093;52.062;4.508;2023-06-26T11:01:27;102150.22;;;21.64;53.70
17936;BME280;9093;52.062;4.508;2023-06-26T11:04:07;102163.09;;;21.74;53.42
17936;BME280;9093;52.062;4.508;2023-06-26T11:07:21;102154.53;;;21.78;53.29
17936;BME280;9093;52.062;4.508;2023-06-26T11:10:08;102175.19;;;21.81;53.33
17936;BME280;9093;52.062;4.508;2023-06-26T11:12:48;102171.22;;;21.85;53.24
17936;BME280;9093;52.062;4.508;2023-06-26T11:15:29;102191.03;;;21.87;53.10
17936;BME280;9093;52.062;4.508;2023-06-26T11:18:14;102180.16;;;21.87;53.05
17936;BME280;9093;52.062;4.508;2023-06-26T11:21:04;102182.34;;;21.82;53.07
17936;BME280;9093;52.062;4.508;2023-06-26T11:23:46;102194.22;;;21.81;52.98
17936;BME280;9093;52.062;4.508;2023-06-26T11:26:27;102183.47;;;21.79;52.66
17936;BME280;9093;52.062;4.508;2023-06-26T11:29:09;102184.22;;;21.81;52.99
17936;BME280;9093;52.062;4.508;2023-06-26T11:31:58;102192.00;;;21.86;53.00
17936;BME280;9093;52.062;4.508;2023-06-26T11:34:38;102192.50;;;21.91;52.56
17936;BME280;9093;52.062;4.508;2023-06-26T11:37:21;102193.97;;;21.95;52.48
17936;BME280;9093;52.062;4.508;2023-06-26T11:40:18;102198.34;;;21.97;52.71
17936;BME280;9093;52.062;4.508;2023-06-26T11:43:02;102204.38;;;22.01;52.35
17936;BME280;9093;52.062;4.508;2023-06-26T11:45:45;102210.47;;;22.04;52.50
17936;BME280;9093;52.062;4.508;2023-06-26T11:48:26;102207.09;;;22.01;52.37
17936;BME280;9093;52.062;4.508;2023-06-26T11:51:06;102217.97;;;22.01;52.05
17936;BME280;9093;52.062;4.508;2023-06-26T11:53:48;102220.47;;;22.04;52.31
17936;BME280;9093;52.062;4.508;2023-06-26T11:56:28;102226.41;;;22.09;52.14
17936;BME280;9093;52.062;4.508;2023-06-26T11:59:11;102223.44;;;22.12;52.01
17936;BME280;9093;52.062;4.508;2023-06-26T12:01:52;102217.75;;;22.15;51.54
17936;BME280;9093;52.062;4.508;2023-06-26T12:04:34;102222.94;;;22.18;51.77
17936;BME280;9093;52.062;4.508;2023-06-26T12:07:16;102240.25;;;22.17;52.02
17936;BME280;9093;52.062;4.508;2023-06-26T12:09:57;102230.38;;;22.16;51.71
17936;BME280;9093;52.062;4.508;2023-06-26T12:12:45;102244.72;;;22.18;51.77
17936;BME280;9093;52.062;4.508;2023-06-26T12:15:26;102251.91;;;22.19;51.52
17936;BME280;9093;52.062;4.508;2023-06-26T12:18:08;102247.19;;;22.21;51.52
17936;BME280;9093;52.062;4.508;2023-06-26T12:20:49;102244.44;;;22.21;51.45
17936;BME280;9093;52.062;4.508;2023-06-26T12:23:33;102247.94;;;22.23;51.58
17936;BME280;9093;52.062;4.508;2023-06-26T12:26:19;102256.97;;;22.24;51.33
17936;BME280;9093;52.062;4.508;2023-06-26T12:29:15;102247.06;;;22.23;51.63
17936;BME280;9093;52.062;4.508;2023-06-26T12:31:57;102252.50;;;22.23;51.29
17936;BME280;9093;52.062;4.508;2023-06-26T12:34:38;102256.84;;;22.25;51.45
17936;BME280;9093;52.062;4.508;2023-06-26T12:37:19;102254.84;;;22.27;51.09
17936;BME280;9093;52.062;4.508;2023-06-26T12:39:59;102270.06;;;22.30;51.22
17936;BME280;9093;52.062;4.508;2023-06-26T12:42:41;102259.78;;;22.33;50.83
17936;BME280;9093;52.062;4.508;2023-06-26T12:45:21;102260.78;;;22.32;50.84
17936;BME280;9093;52.062;4.508;2023-06-26T12:48:12;102260.16;;;22.29;50.47
17936;BME280;9093;52.062;4.508;2023-06-26T12:50:55;102260.16;;;22.29;50.46
17936;BME280;9093;52.062;4.508;2023-06-26T12:53:35;102272.16;;;22.26;50.12
17936;BME280;9093;52.062;4.508;2023-06-26T12:56:15;102273.41;;;22.22;50.06
17936;BME280;9093;52.062;4.508;2023-06-26T12:58:56;102270.56;;;22.24;50.33
17936;BME280;9093;52.062;4.508;2023-06-26T13:01:36;102272.91;;;22.28;49.96
17936;BME280;9093;52.062;4.508;2023-06-26T13:04:17;102270.06;;;22.30;49.83
17936;BME280;9093;52.062;4.508;2023-06-26T13:06:57;102263.25;;;22.35;49.80
17936;BME280;9093;52.062;4.508;2023-06-26T13:09:38;102277.47;;;22.39;49.74
17936;BME280;9093;52.062;4.508;2023-06-26T13:12:18;102261.28;;;22.37;49.64
17936;BME280;9093;52.062;4.508;2023-06-26T13:15:02;102262.16;;;22.38;49.82
17936;BME280;9093;52.062;4.508;2023-06-26T13:17:42;102267.44;;;22.39;49.77
17936;BME280;9093;52.062;4.508;2023-06-26T13:20:23;102258.31;;;22.40;49.31
17936;BME280;9093;52.062;4.508;2023-06-26T13:23:03;102257.19;;;22.43;49.26
17936;BME280;9093;52.062;4.508;2023-06-26T13:25:44;102253.59;;;22.42;49.42
17936;BME280;9093;52.062;4.508;2023-06-26T13:28:24;102246.19;;;22.44;49.18
17936;BME280;9093;52.062;4.508;2023-06-26T13:31:05;102261.38;;;22.47;49.03
17936;BME280;9093;52.062;4.508;2023-06-26T13:33:46;102247.66;;;22.49;49.14
17936;BME280;9093;52.062;4.508;2023-06-26T13:36:28;102247.66;;;22.49;49.39
17936;BME280;9093;52.062;4.508;2023-06-26T13:39:08;102258.28;;;22.52;49.00
17936;BME280;9093;52.062;4.508;2023-06-26T13:41:49;102248.16;;;22.54;49.20
17936;BME280;9093;52.062;4.508;2023-06-26T13:44:29;102265.81;;;22.59;49.00
17936;BME280;9093;52.062;4.508;2023-06-26T13:47:12;102289.94;;;22.64;48.90
17936;BME280;9093;52.062;4.508;2023-06-26T13:49:53;102285.13;;;22.67;48.36
17936;BME280;9093;52.062;4.508;2023-06-26T13:52:33;102283.16;;;22.69;48.23
17936;BME280;9093;52.062;4.508;2023-06-26T13:55:13;102278.34;;;22.73;48.60
17936;BME280;9093;52.062;4.508;2023-06-26T13:57:54;102278.09;;;22.76;48.21
17936;BME280;9093;52.062;4.508;2023-06-26T14:00:36;102281.53;;;22.78;48.34
17936;BME280;9093;52.062;4.508;2023-06-26T14:03:16;102273.25;;;22.79;48.31
17936;BME280;9093;52.062;4.508;2023-06-26T14:05:57;102282.19;;;22.81;48.00
17936;BME280;9093;52.062;4.508;2023-06-26T14:08:38;102277.31;;;22.85;47.54
17936;BME280;9093;52.062;4.508;2023-06-26T14:11:18;102287.13;;;22.88;47.51
17936;BME280;9093;52.062;4.508;2023-06-26T14:14:00;102272.25;;;22.92;47.45
17936;BME280;9093;52.062;4.508;2023-06-26T14:16:40;102276.81;;;22.91;47.46
17936;BME280;9093;52.062;4.508;2023-06-26T14:19:20;102275.06;;;22.90;47.42